Portada
METAR-TAF:

METAR-TAF

Aeroports :

Rafha, Aràbia Saudita

latitud: 29-37N, longitud: 043-29E, altitud: 449 m

Observació

L'informe es va fer fa 27 minuts, a les 06:00 UTC
Vent calma
Temperatura 21°C
Humitat 11%
Pressió 1019 hPa
Visibilitat 10 km o més
sense núvols per sota de 1500 mi sense presència de cumulonimbus.

METAR: OERF 270600Z 00000KT CAVOK 21/M10 Q1019

Hora: 09:27 (06:27 UTC)

Pronòstic

L'informe es va fer fa 7 hores i 27 minuts, a les 23:00 UTC
Pronòstic vàlid del 27 a les 00 UTC al 28 a les 06 UTC
Vent 6 kt del Sud/Sud-Oest
Visibilitat 10 km o més
sense núvols per sota de 1500 mi sense presència de cumulonimbus.
Evolucionant progressivament
l' 27 a les 08 UTC al 27 a les 10 UTC
Vent 8 kt del Nord

TAF: OERF 262300Z 2700/2806 20006KT CAVOK BECMG 2708/2710 01008KT

Observacions i pronòstics meteorològics de més de 4000 aeroports (METAR i TAF).

Les estacions disponibles són els punts grocs i vermells al mapa.

Posi el ratolí al punt desitjat per veure el nom de l'estació.

Feu clic per veure les observacions i els pronòstics meteorològics.

Per canviar el mapa: feu clic els botons verds amb una creu de color negre per apropar; al botó verd amb un guió per allunyar la imatge; o en les fletxes verdes per a mapes adjacents.


METAR-TAF: